Nearby METAR Reports


KSYR - Syracuse, New York, USA
Distance from station: SE 5mi, 8km
Updated: Sun, 20-Aug-2017 12:54pm EDT
Partly cloudy
Partly cloudy
 Wind from WNW
Wind: WNW 9 mph , 15 km/h
Temperature: 77°F , 25°C
Dew Point: 59°F , 15°C
Humidity: 54%
Barometer: 30.09 inHg , 1019 hPa
Clouds: Partly cloudy
Visibility: 10 miles , 16 km
Cloud details: Partly cloudy 4100 ft
2017/08/20 16:54 KSYR 201654Z 29008KT 10SM SCT041 25/15 A3009 RMK AO2 SLP185 T02500150 $
KFZY - Fulton, New York, USA
Distance from station: NW 17mi, 27km
Updated: Sun, 20-Aug-2017 12:54pm EDT
Few Clouds
Few Clouds
 Wind from WNW
Wind: WNW 9 mph , 15 km/h
Temperature: 79°F , 26°C
Dew Point: 61°F , 16°C
Humidity: 54%
Barometer: 30.10 inHg , 1019.3 hPa
Clouds: Few Clouds
Visibility: 10 miles , 16 km
Cloud details: Few Clouds 3600 ft
2017/08/20 16:54 KFZY 201654Z AUTO 30008KT 10SM FEW036 26/16 A3010 RMK AO2 SLP188 T02560161
 
KRME - Rome/Griffiss Af, New York, USA
Distance from station: E 39mi, 62km
Updated: Sun, 20-Aug-2017 12:53pm EDT
Mostly cloudy
Mostly cloudy
 Wind from WNW
Wind: WNW 7 mph , 11 km/h
Temperature: 75°F , 24°C
Dew Point: 63°F , 17°C
Humidity: 65%
Barometer: 30.09 inHg , 1019 hPa
Clouds: Mostly cloudy
Visibility: 10 miles , 16 km
Cloud details: Partly cloudy 3400 ft
Mostly cloudy 4400 ft
2017/08/20 16:53 KRME 201653Z 30006KT 10SM SCT034 BKN044 24/17 A3009 RMK AO2 SLP186 T02390167
KITH - Ithaca/Tompkins, New York, USA
Distance from station: SSW 51mi, 82km
Updated: Sun, 20-Aug-2017 12:56pm EDT
Partly cloudy
Partly cloudy
 Wind from NNW
Wind: NNW 7 mph , 11 km/h
Temperature: 73°F , 23°C
Dew Point: 63°F , 17°C
Humidity: 69%
Barometer: 30.14 inHg , 1020.7 hPa
Clouds: Partly cloudy
Visibility: 10 miles , 16 km
Cloud details: Partly cloudy 3800 ft
2017/08/20 16:56 KITH 201656Z 34006KT 10SM SCT038 23/17 A3014 RMK AO2 SLP203 T02330167
 
KART - Watertown, New York, USA
Distance from station: N 56mi, 91km
Updated: Sun, 20-Aug-2017 12:56pm EDT
Clear
Clear
 Wind from WSW
Wind: WSW 12 mph , 19 km/h
Temperature: 73°F , 23°C
Dew Point: 64°F , 18°C
Humidity: 74%
Barometer: 30.07 inHg , 1018.3 hPa
Clouds: Clear
Visibility: 10 miles , 16 km
2017/08/20 16:56 KART 201656Z AUTO 25010KT 10SM CLR 23/18 A3007 RMK AO2 SLP179 T02330178 $
KPEO - Penn Yan, New York, USA
Distance from station: SW 58mi, 93km
Updated: Sun, 20-Aug-2017 12:53pm EDT
Mostly cloudy
Mostly cloudy
 Wind from varies
Wind: varies 3 mph , 6 km/h
Temperature: 79°F , 26°C
Dew Point: 61°F , 16°C
Humidity: 54%
Barometer: 30.12 inHg , 1020 hPa
Clouds: Mostly cloudy
Visibility: 10 miles , 16 km
Cloud details: Mostly cloudy 4200 ft
Mostly cloudy 5500 ft
Mostly cloudy 7000 ft
2017/08/20 16:53 KPEO 201653Z AUTO VRB03KT 10SM BKN042 BKN055 BKN070 26/16 A3012 RMK AO2 SLP193 T02560161
 
KGTB - Fort Drum/Wheele, New York, USA
Distance from station: NNE 64mi, 102km
Updated: Sun, 20-Aug-2017 12:58pm EDT
Few Clouds
Few Clouds
 Wind from W
Wind: W 10 mph , 17 km/h, Gust: 18 mph , 30 km/h
Temperature: 75°F , 24°C
Dew Point: 59°F , 15°C
Humidity: 57%
Barometer: 30.07 inHg , 1018.3 hPa
Clouds: Few Clouds
Visibility: 10 miles , 16 km
Cloud details: Few Clouds 3500 ft
2017/08/20 16:58 KGTB 201658Z AUTO 26009G16KT 10SM FEW035 24/15 A3007 RMK AO2 SLP180 T02380152 $
CWQP - Point Petre (mar, Ontario, Canada
Distance from station: NW 67mi, 107km
Updated: Sun, 20-Aug-2017 1:00pm EDT

 Wind from WSW
Wind: WSW 13 mph , 20 km/h
Temperature: 73°F , 23°C
Dew Point: 64°F , 18°C
Humidity: 74%
2017/08/20 17:00 CWQP 201700Z AUTO 24011KT 23/18 RMK AO1 SLP183 T02260180 51009
 
KBGM - Binghamton, New York, USA
Distance from station: S 67mi, 107km
Updated: Sun, 20-Aug-2017 12:53pm EDT
Partly cloudy
Partly cloudy
 Wind from W
Wind: W 10 mph , 17 km/h
Temperature: 72°F , 22°C
Dew Point: 57°F , 14°C
Humidity: 61%
Barometer: 30.15 inHg , 1021 hPa
Clouds: Partly cloudy
Visibility: 10 miles , 16 km
Cloud details: Partly cloudy 3800 ft
2017/08/20 16:53 KBGM 201653Z 28009KT 10SM SCT038 22/14 A3015 RMK AO2 SLP204 T02170139
CYGK - Kingston Arpt (m, Ontario, Canada
Distance from station: NNW 75mi, 121km
Updated: Sun, 20-Aug-2017 1:00pm EDT
Partly cloudy
Partly cloudy
 Wind from S
Wind: S 9 mph , 15 km/h
Temperature: 73°F , 23°C
Dew Point: 66°F , 19°C
Humidity: 78%
Barometer: 30.06 inHg , 1017.9 hPa
Clouds: Partly cloudy
Visibility: 15 miles , 24 km
Cloud details: Partly cloudy 2500 ft
2017/08/20 17:00 CYGK 201700Z 18008KT 15SM SCT025 23/19 A3006 RMK CU3 SLP179 DENSITY ALT 1200FT